createdAt,value
2016-02-19T09:39:33.864Z,720
2016-02-19T09:39:47.332Z,740
2016-02-19T09:40:01.288Z,755
2016-02-19T09:40:14.944Z,790
2016-02-19T09:40:29.319Z,810
2016-02-19T09:40:43.178Z,815
2016-02-19T09:40:56.978Z,835
2016-02-19T09:41:10.353Z,855
2016-02-19T09:41:24.228Z,875
2016-02-19T09:41:38.259Z,890
2016-02-19T09:41:51.931Z,890
2016-02-19T09:42:05.965Z,890
2016-02-19T09:42:19.715Z,905
2016-02-19T09:42:33.481Z,900
2016-02-19T09:42:47.575Z,910
2016-02-19T09:43:01.280Z,920
2016-02-19T09:43:15.092Z,900
2016-02-19T09:44:00.440Z,885
2016-02-19T09:44:14.268Z,890
2016-02-19T09:44:28.065Z,885
2016-02-19T09:44:42.315Z,895
2016-02-19T09:44:56.645Z,920
2016-02-19T09:45:10.692Z,935
2016-02-19T09:45:23.567Z,940
2016-02-19T09:45:37.302Z,935
2016-02-19T09:45:51.505Z,935
2016-02-19T09:46:05.350Z,945
2016-02-19T09:46:19.132Z,955
2016-02-19T09:46:32.835Z,955
2016-02-19T09:46:46.772Z,960
2016-02-19T09:47:00.432Z,960
2016-02-19T09:47:13.478Z,980
2016-02-19T09:47:27.682Z,990
2016-02-19T09:47:41.775Z,1000
2016-02-19T09:47:56.072Z,1025
2016-02-19T09:48:12.825Z,1055
2016-02-19T09:48:26.450Z,1075
2016-02-19T09:48:40.200Z,1070
2016-02-19T09:49:07.516Z,1075
2016-02-19T09:49:21.594Z,1100
2016-02-19T09:50:03.361Z,1090
2016-02-19T09:50:17.018Z,1090
2016-02-19T09:50:30.752Z,1080
2016-02-19T09:50:44.861Z,1085
2016-02-19T09:50:58.755Z,1065
2016-02-19T09:51:12.474Z,1045
2016-02-19T09:51:26.286Z,1025
2016-02-19T09:51:40.239Z,1015
2016-02-19T09:51:54.302Z,1015
2016-02-19T09:52:08.133Z,1025
2016-02-19T09:52:22.102Z,1020
2016-02-19T09:52:35.977Z,1000
2016-02-19T09:52:49.899Z,975
2016-02-19T09:53:02.916Z,955
2016-02-19T09:53:17.416Z,935
2016-02-19T09:53:30.963Z,915
2016-02-19T09:53:44.526Z,900
2016-02-19T09:53:57.983Z,890
2016-02-19T09:54:11.623Z,880
2016-02-19T09:54:25.389Z,875
2016-02-19T09:54:39.389Z,860
2016-02-19T09:54:53.077Z,845
2016-02-19T09:55:06.813Z,835
2016-02-19T09:55:20.547Z,825
2016-02-19T09:55:34.891Z,825
2016-02-19T09:55:48.782Z,820
2016-02-19T09:56:02.534Z,820
2016-02-19T09:56:16.549Z,815
2016-02-19T09:56:30.627Z,815
2016-02-19T09:56:44.331Z,810
2016-02-19T09:56:58.412Z,805
2016-02-19T09:57:12.349Z,805
2016-02-19T09:57:26.084Z,810
2016-02-19T09:57:39.521Z,805
2016-02-19T09:57:52.349Z,805
2016-02-19T09:58:06.102Z,820
2016-02-19T09:58:19.821Z,840
2016-02-19T09:58:34.508Z,860
2016-02-19T09:58:48.274Z,880
2016-02-19T09:59:16.043Z,910
2016-02-19T09:59:29.558Z,920
2016-02-19T09:59:43.324Z,930
2016-02-19T09:59:57.092Z,940
2016-02-19T10:00:10.795Z,945
2016-02-19T10:00:24.607Z,950
2016-02-19T10:00:38.138Z,970
2016-02-19T10:00:51.904Z,980
2016-02-19T10:01:05.735Z,985
2016-02-19T10:01:19.345Z,995
2016-02-19T10:01:35.876Z,1005
2016-02-19T10:01:49.485Z,1020
2016-02-19T10:02:03.113Z,1015
2016-02-19T10:02:16.832Z,1020
2016-02-19T10:02:30.457Z,1020
2016-02-19T10:02:43.863Z,1010
2016-02-19T10:02:57.396Z,1025
2016-02-19T10:03:11.021Z,1045
2016-02-19T10:03:24.615Z,1055
2016-02-19T10:03:38.303Z,1065
2016-02-19T10:03:51.943Z,1060
2016-02-19T10:04:05.587Z,1065
2016-02-19T10:04:19.149Z,1060
2016-02-19T10:04:32.321Z,1060
2016-02-19T10:04:45.899Z,1085
2016-02-19T10:04:59.465Z,1115
2016-02-19T10:05:13.090Z,1145
2016-02-19T10:05:27.012Z,1160
2016-02-19T10:05:40.699Z,1135
2016-02-19T10:05:54.293Z,1025
2016-02-19T10:06:07.920Z,985
2016-02-19T10:06:21.561Z,975
2016-02-19T10:06:35.404Z,970
2016-02-19T10:06:48.951Z,975
2016-02-19T10:07:02.705Z,980
2016-02-19T10:07:16.252Z,990
2016-02-19T10:07:29.940Z,995
2016-02-19T10:07:42.893Z,1000
2016-02-19T10:07:56.565Z,1005
2016-02-19T10:08:10.332Z,1000
2016-02-19T10:08:24.004Z,1000
2016-02-19T10:08:37.785Z,1015
2016-02-19T10:08:51.364Z,1055
2016-02-19T10:09:05.038Z,1085
2016-02-19T10:09:17.960Z,1120
2016-02-19T10:09:31.476Z,1130
2016-02-19T10:09:45.023Z,1125
2016-02-19T10:09:58.572Z,1130
2016-02-19T10:10:12.181Z,1140
2016-02-19T10:10:25.759Z,1145
2016-02-19T10:10:39.290Z,1140
2016-02-19T10:10:52.790Z,1130
2016-02-19T10:11:06.340Z,1125
2016-02-19T10:11:19.950Z,1115
2016-02-19T10:11:33.559Z,1125
2016-02-19T10:11:46.434Z,1150
2016-02-19T10:11:59.983Z,1155
2016-02-19T10:12:13.483Z,1165
2016-02-19T10:12:26.514Z,1190
2016-02-19T10:12:40.202Z,1205
2016-02-19T10:12:53.764Z,1235
2016-02-19T10:13:07.190Z,1245
2016-02-19T10:13:20.737Z,1230
2016-02-19T10:13:34.128Z,1210
2016-02-19T10:13:47.721Z,1200
2016-02-19T10:14:01.176Z,1195
2016-02-19T10:14:14.973Z,1200
2016-02-19T10:14:28.583Z,1200
2016-02-19T10:14:42.161Z,1180
2016-02-19T10:14:55.708Z,1185
2016-02-19T10:15:09.226Z,1190
2016-02-19T10:15:22.992Z,1200
2016-02-19T10:15:36.601Z,1180
2016-02-19T10:15:50.179Z,1155
2016-02-19T10:16:03.697Z,1145
2016-02-19T10:16:20.322Z,1150
2016-02-19T10:16:33.869Z,1165
2016-02-19T10:16:47.353Z,1150
2016-02-19T10:17:00.841Z,1145
2016-02-19T10:17:14.403Z,1135
2016-02-19T10:17:27.919Z,1120
2016-02-19T10:17:41.403Z,1110
2016-02-19T10:17:54.934Z,1120
2016-02-19T10:18:08.437Z,1155
2016-02-19T10:18:21.953Z,1170
2016-02-19T10:18:35.531Z,1185
2016-02-19T10:18:48.953Z,1200
2016-02-19T10:19:02.518Z,1190
2016-02-19T10:19:16.033Z,1200
2016-02-19T10:19:29.549Z,1200
2016-02-19T10:19:43.189Z,1200
2016-02-19T10:19:56.783Z,1215
2016-02-19T10:20:10.396Z,1225
2016-02-19T10:20:24.021Z,1230
2016-02-19T10:20:37.677Z,1235
2016-02-19T10:20:51.208Z,1255
2016-02-19T10:21:04.836Z,1255
2016-02-19T10:21:18.367Z,1265
2016-02-19T10:21:32.117Z,1270
2016-02-19T10:21:45.758Z,1270
2016-02-19T10:21:59.916Z,1275
2016-02-19T10:22:13.447Z,1275
2016-02-19T10:22:26.947Z,1280
2016-02-19T10:22:39.760Z,1295
2016-02-19T10:22:53.276Z,1290
2016-02-19T10:23:06.764Z,1295
2016-02-19T10:23:20.311Z,1295
2016-02-19T10:23:33.811Z,1290
2016-02-19T10:23:47.326Z,1290
2016-02-19T10:24:00.969Z,1285
2016-02-19T10:24:14.516Z,1285
2016-02-19T10:24:28.078Z,1275
2016-02-19T10:24:41.657Z,1270
2016-02-19T10:24:54.828Z,1265
2016-02-19T10:25:08.705Z,1260
2016-02-19T10:25:22.221Z,1260
2016-02-19T10:25:39.159Z,1270
2016-02-19T10:25:52.690Z,1280
2016-02-19T10:26:06.022Z,1280
2016-02-19T10:26:19.569Z,1275
2016-02-19T10:26:33.178Z,1280
2016-02-19T10:26:46.694Z,1295
2016-02-19T10:27:00.180Z,1320
2016-02-19T10:27:13.665Z,1335
2016-02-19T10:27:27.165Z,1360
2016-02-19T10:27:40.586Z,1370
2016-02-19T10:27:54.477Z,1375
2016-02-19T10:28:08.339Z,1375
2016-02-19T10:28:24.871Z,1390
2016-02-19T10:28:41.449Z,1385
2016-02-19T10:28:54.980Z,1380
2016-02-19T10:29:08.513Z,1370
2016-02-19T10:29:21.998Z,1365
2016-02-19T10:29:35.795Z,1360
2016-02-19T10:29:49.420Z,1360
2016-02-19T10:30:01.516Z,1360
2016-02-19T10:30:15.438Z,1360
2016-02-19T10:30:29.016Z,1355
2016-02-19T10:30:42.532Z,1350
2016-02-19T10:30:56.016Z,1350
2016-02-19T10:31:12.582Z,1355
2016-02-19T10:31:26.160Z,1355
2016-02-19T10:31:39.644Z,1350
2016-02-19T10:31:52.410Z,1340
2016-02-19T10:32:05.944Z,1330
2016-02-19T10:32:19.413Z,1315
2016-02-19T10:32:33.194Z,1310
2016-02-19T10:32:46.913Z,1300
2016-02-19T10:33:00.447Z,1305
2016-02-19T10:33:14.088Z,1325
2016-02-19T10:33:27.588Z,1345
2016-02-19T10:33:40.400Z,1330
2016-02-19T10:33:53.885Z,1345
2016-02-19T10:34:07.371Z,1350
2016-02-19T10:34:20.824Z,1340
2016-02-19T10:34:34.340Z,1340
2016-02-19T10:34:47.871Z,1345
2016-02-19T10:35:01.420Z,1345
2016-02-19T10:35:14.936Z,1345
2016-02-19T10:35:28.404Z,1360
2016-02-19T10:35:44.889Z,1375
2016-02-19T10:35:58.439Z,1380
2016-02-19T10:36:12.189Z,1390
2016-02-19T10:36:39.954Z,1415
2016-02-19T10:36:53.329Z,1415
2016-02-19T10:37:06.926Z,1420
2016-02-19T10:37:20.801Z,1430
2016-02-19T10:37:34.270Z,1435
2016-02-19T10:37:47.801Z,1450
2016-02-19T10:38:01.303Z,1430
2016-02-19T10:38:14.772Z,1405
2016-02-19T10:38:28.256Z,1390
2016-02-19T10:38:42.006Z,1375
2016-02-19T10:38:55.522Z,1360
2016-02-19T10:39:09.243Z,1355
2016-02-19T10:39:22.634Z,1340
2016-02-19T10:39:36.275Z,1335
2016-02-19T10:39:49.947Z,1345
2016-02-19T10:40:03.512Z,1350
2016-02-19T10:40:16.965Z,1335
2016-02-19T10:40:30.606Z,1325
2016-02-19T10:40:44.200Z,1330
2016-02-19T10:40:57.780Z,1335
2016-02-19T10:41:11.295Z,1345
2016-02-19T10:41:25.092Z,1355
2016-02-19T10:41:38.655Z,1340
2016-02-19T10:41:52.186Z,1335
2016-02-19T10:42:05.909Z,1325
2016-02-19T10:42:19.784Z,1300
2016-02-19T10:42:33.331Z,1275
2016-02-19T10:42:46.862Z,1250
2016-02-19T10:42:59.864Z,1225
2016-02-19T10:43:13.411Z,1225
2016-02-19T10:43:29.911Z,1215
2016-02-19T10:43:43.458Z,1180
2016-02-19T10:43:56.958Z,1145
2016-02-19T10:44:10.506Z,1125
2016-02-19T10:44:23.928Z,1105
2016-02-19T10:44:37.522Z,1110
2016-02-19T10:44:51.178Z,1155
2016-02-19T10:45:04.792Z,1175
2016-02-19T10:45:18.417Z,1180
2016-02-19T10:45:31.964Z,1190
2016-02-19T10:45:45.745Z,1200
2016-02-19T10:45:59.387Z,1185
2016-02-19T10:46:12.919Z,1180
2016-02-19T10:46:26.887Z,1165
2016-02-19T10:46:40.450Z,1160
2016-02-19T10:46:54.262Z,1165
2016-02-19T10:47:07.984Z,1175
2016-02-19T10:47:21.547Z,1170
2016-02-19T10:47:35.172Z,1155
2016-02-19T10:47:48.703Z,1120
2016-02-19T10:48:02.455Z,1110
2016-02-19T10:48:16.346Z,1100
2016-02-19T10:48:30.080Z,1110
2016-02-19T10:48:43.627Z,1100
2016-02-19T10:48:57.189Z,1135
2016-02-19T10:49:10.661Z,1145
2016-02-19T10:49:24.489Z,1175
2016-02-19T10:49:37.958Z,1200
2016-02-19T10:49:51.567Z,1195
2016-02-19T10:50:05.086Z,1220
2016-02-19T10:50:18.742Z,1245
2016-02-19T10:50:35.492Z,1275
2016-02-19T10:50:49.117Z,1295
2016-02-19T10:51:02.573Z,1330
2016-02-19T10:51:16.230Z,1315
2016-02-19T10:51:29.792Z,1290
2016-02-19T10:51:43.308Z,1260
2016-02-19T10:51:56.823Z,1210
2016-02-19T10:52:10.420Z,1175
2016-02-19T10:52:23.983Z,1140
2016-02-19T10:52:37.467Z,1120
2016-02-19T10:52:51.326Z,1105
2016-02-19T10:53:05.031Z,1100
2016-02-19T10:53:18.672Z,1100
2016-02-19T10:53:32.188Z,1085
2016-02-19T10:53:45.828Z,1070
2016-02-19T10:53:59.378Z,1070
2016-02-19T10:54:13.034Z,1070
2016-02-19T10:54:26.659Z,1085
2016-02-19T10:54:40.222Z,1130
2016-02-19T10:54:54.441Z,1150
2016-02-19T10:55:08.022Z,1160
2016-02-19T10:55:21.553Z,1175
2016-02-19T10:55:35.225Z,1190
2016-02-19T10:55:48.100Z,1195
2016-02-19T10:56:04.946Z,1230
2016-02-19T10:56:17.789Z,1260
2016-02-19T10:56:31.336Z,1275
2016-02-19T10:56:45.227Z,1270
2016-02-19T10:56:58.666Z,1265
2016-02-19T10:57:12.307Z,1285
2016-02-19T10:57:25.807Z,1300
2016-02-19T10:57:39.401Z,1290
2016-02-19T10:57:56.041Z,1285
2016-02-19T10:58:09.654Z,1260
2016-02-19T10:58:23.435Z,1245
2016-02-19T10:58:36.935Z,1245
2016-02-19T10:58:50.748Z,1240
2016-02-19T10:59:04.297Z,1225
2016-02-19T10:59:17.876Z,1210
2016-02-19T10:59:31.235Z,1205
2016-02-19T10:59:44.876Z,1205
2016-02-19T10:59:58.394Z,1200
2016-02-19T11:00:12.269Z,1200
2016-02-19T11:00:25.863Z,1195
2016-02-19T11:00:39.675Z,1210
2016-02-19T11:00:53.207Z,1225
2016-02-19T11:01:06.022Z,1255
2016-02-19T11:01:19.491Z,1280
2016-02-19T11:01:33.038Z,1275
2016-02-19T11:01:46.522Z,1280
2016-02-19T11:02:00.165Z,1300
2016-02-19T11:02:13.680Z,1285
2016-02-19T11:02:27.477Z,1285
2016-02-19T11:02:41.055Z,1275
2016-02-19T11:02:54.899Z,1280
2016-02-19T11:03:08.495Z,1295
2016-02-19T11:03:22.026Z,1305
2016-02-19T11:03:35.542Z,1390
2016-02-19T11:03:49.104Z,1450
2016-02-19T11:04:02.593Z,1475
2016-02-19T11:04:16.077Z,1480
2016-02-19T11:04:29.593Z,1460
2016-02-19T11:04:42.905Z,1450
2016-02-19T11:05:13.313Z,1455
2016-02-19T11:05:26.720Z,1435
2016-02-19T11:05:40.267Z,1445
2016-02-19T11:05:53.782Z,1440
2016-02-19T11:06:07.565Z,1480
2016-02-19T11:06:20.331Z,1480
2016-02-19T11:06:33.769Z,1480
2016-02-19T11:06:47.472Z,1500
2016-02-19T11:07:01.069Z,1530
2016-02-19T11:07:14.632Z,1545
2016-02-19T11:07:27.976Z,1590
2016-02-19T11:07:41.491Z,1630
2016-02-19T11:07:55.023Z,1615
2016-02-19T11:08:08.618Z,1490
2016-02-19T11:08:22.103Z,1445
2016-02-19T11:08:34.884Z,1400
2016-02-19T11:08:48.353Z,1385
2016-02-19T11:09:01.965Z,1395
2016-02-19T11:09:15.528Z,1405
2016-02-19T11:09:29.059Z,1465
2016-02-19T11:09:42.653Z,1460
2016-02-19T11:09:56.106Z,1395
2016-02-19T11:10:09.671Z,1340
2016-02-19T11:10:22.640Z,1310
2016-02-19T11:10:36.156Z,1290
2016-02-19T11:10:49.624Z,1280
2016-02-19T11:11:06.173Z,1305
2016-02-19T11:11:19.736Z,1350
2016-02-19T11:11:33.376Z,1350
2016-02-19T11:11:46.954Z,1300
2016-02-19T11:12:01.051Z,1295
2016-02-19T11:12:14.739Z,1300
2016-02-19T11:12:28.520Z,1290
2016-02-19T11:12:42.207Z,1285
2016-02-19T11:12:55.926Z,1310
2016-02-19T11:13:09.523Z,1285
2016-02-19T11:13:23.164Z,1250
2016-02-19T11:13:36.632Z,1210
2016-02-19T11:13:50.179Z,1165
2016-02-19T11:14:17.994Z,1125
2016-02-19T11:14:31.572Z,1120
2016-02-19T11:14:45.166Z,1130
2016-02-19T11:14:58.684Z,1130
2016-02-19T11:15:12.294Z,1145
2016-02-19T11:15:26.200Z,1160
2016-02-19T11:15:40.012Z,1180
2016-02-19T11:15:53.606Z,1185
2016-02-19T11:16:07.250Z,1200
2016-02-19T11:16:20.140Z,1225
2016-02-19T11:16:33.703Z,1235
2016-02-19T11:17:01.628Z,1280
2016-02-19T11:17:15.440Z,1395
2016-02-19T11:17:32.003Z,1485
2016-02-19T11:17:44.768Z,1520
2016-02-19T11:17:58.817Z,1570
2016-02-19T11:18:12.333Z,1485
2016-02-19T11:18:25.817Z,1395
2016-02-19T11:18:39.645Z,1405
2016-02-19T11:18:53.083Z,1430
2016-02-19T11:19:06.758Z,1395
2016-02-19T11:19:20.289Z,1330
2016-02-19T11:19:33.773Z,1340
2016-02-19T11:19:47.539Z,1355
2016-02-19T11:20:01.292Z,1285
2016-02-19T11:20:14.792Z,1280
2016-02-19T11:20:28.276Z,1245
2016-02-19T11:20:41.792Z,1225
2016-02-19T11:20:55.433Z,1220
2016-02-19T11:21:08.950Z,1220
2016-02-19T11:21:22.372Z,1240
2016-02-19T11:21:36.013Z,1220
2016-02-19T11:21:49.544Z,1200
2016-02-19T11:22:03.188Z,1185
2016-02-19T11:22:16.984Z,1175
2016-02-19T11:22:30.906Z,1160
2016-02-19T11:22:44.547Z,1150
2016-02-19T11:22:58.127Z,1160
2016-02-19T11:23:11.643Z,1165
2016-02-19T11:23:24.502Z,1175
2016-02-19T11:23:37.986Z,1190
2016-02-19T11:23:51.518Z,1175
2016-02-19T11:24:19.208Z,1170
2016-02-19T11:24:32.724Z,1180
2016-02-19T11:24:46.349Z,1190
2016-02-19T11:25:00.274Z,1225
2016-02-19T11:25:13.133Z,1270
2016-02-19T11:25:25.930Z,1320
2016-02-19T11:25:39.992Z,1345
2016-02-19T11:25:53.555Z,1345
2016-02-19T11:26:06.355Z,1395
2016-02-19T11:26:19.933Z,1440
2016-02-19T11:26:33.667Z,1415
2016-02-19T11:26:47.199Z,1320
2016-02-19T11:27:03.716Z,1275
2016-02-19T11:27:16.513Z,1270
2016-02-19T11:27:30.138Z,1290
2016-02-19T11:27:43.982Z,1315
2016-02-19T11:27:57.622Z,1345
2016-02-19T11:28:11.125Z,1385
2016-02-19T11:28:27.610Z,1465
2016-02-19T11:28:41.204Z,1515
2016-02-19T11:28:54.782Z,1505
2016-02-19T11:29:08.332Z,1570
2016-02-19T11:29:21.878Z,1550
2016-02-19T11:29:49.472Z,1550
2016-02-19T11:30:02.865Z,1605
2016-02-19T11:30:16.427Z,1530
2016-02-19T11:30:30.177Z,1520
2016-02-19T11:30:43.802Z,1445
2016-02-19T11:30:57.349Z,1390
2016-02-19T11:31:10.868Z,1370
2016-02-19T11:31:24.399Z,1380
2016-02-19T11:31:38.258Z,1340
2016-02-19T11:31:51.790Z,1310
2016-02-19T11:32:05.308Z,1305
2016-02-19T11:32:18.871Z,1295
2016-02-19T11:32:32.761Z,1300
2016-02-19T11:32:46.590Z,1345
2016-02-19T11:33:00.123Z,1460
2016-02-19T11:33:13.545Z,1515
2016-02-19T11:33:27.388Z,1455
2016-02-19T11:33:41.217Z,1420
2016-02-19T11:33:55.170Z,1420
2016-02-19T11:34:08.876Z,1430
2016-02-19T11:34:22.532Z,1435
2016-02-19T11:34:36.016Z,1440
2016-02-19T11:35:03.691Z,1480
2016-02-19T11:35:17.535Z,1520
2016-02-19T11:35:31.066Z,1520
2016-02-19T11:35:44.644Z,1480
2016-02-19T11:35:58.160Z,1495
2016-02-19T11:36:11.709Z,1515
2016-02-19T11:36:25.256Z,1570
2016-02-19T11:36:39.021Z,1610
2016-02-19T11:36:52.787Z,1645
2016-02-19T11:37:06.291Z,1615
2016-02-19T11:37:19.822Z,1670
2016-02-19T11:37:33.729Z,1835
2016-02-19T11:37:47.213Z,1810
2016-02-19T11:38:00.746Z,1670
2016-02-19T11:38:14.387Z,1725
2016-02-19T11:38:27.746Z,1770
2016-02-19T11:38:41.309Z,1710
2016-02-19T11:38:54.840Z,1700
2016-02-19T11:39:07.608Z,1635
2016-02-19T11:39:22.154Z,1505
2016-02-19T11:39:35.686Z,1375
2016-02-19T11:39:49.264Z,1405
2016-02-19T11:40:02.877Z,1695
2016-02-19T11:40:16.408Z,1615
2016-02-19T11:40:30.080Z,1560
2016-02-19T11:40:43.799Z,1605
2016-02-19T11:41:11.457Z,1710
2016-02-19T11:41:25.301Z,1710
2016-02-19T11:41:38.895Z,2090
2016-02-19T11:41:52.504Z,1500
2016-02-19T11:42:06.225Z,1890
2016-02-19T11:42:19.991Z,1375
2016-02-19T11:42:33.803Z,1300
2016-02-19T11:42:47.553Z,1275
2016-02-19T11:43:01.509Z,1335
2016-02-19T11:43:18.165Z,1495
2016-02-19T11:43:31.775Z,1710
2016-02-19T11:43:45.353Z,1675
2016-02-19T11:43:58.965Z,1585
2016-02-19T11:44:12.559Z,1630
2016-02-19T11:44:25.309Z,1705
2016-02-19T11:44:38.778Z,1720
2016-02-19T11:44:52.340Z,1625
2016-02-19T11:45:05.842Z,1550
2016-02-19T11:45:19.624Z,1570
2016-02-19T11:45:33.202Z,1650
2016-02-19T11:45:46.780Z,1750
2016-02-19T11:46:00.456Z,1850
2016-02-19T11:46:13.987Z,1700
2016-02-19T11:46:27.612Z,1875
2016-02-19T11:46:41.706Z,2280
2016-02-19T11:46:55.393Z,1675
2016-02-19T11:47:08.848Z,1520
2016-02-19T11:47:22.520Z,1380
2016-02-19T11:47:36.130Z,1340
2016-02-19T11:47:49.755Z,1395
2016-02-19T11:48:03.460Z,1370
2016-02-19T11:48:17.085Z,1320
2016-02-19T11:48:30.694Z,1260
2016-02-19T11:48:44.507Z,1215
2016-02-19T11:48:58.085Z,1220
2016-02-19T11:49:11.917Z,1265
2016-02-19T11:49:25.495Z,1340
2016-02-19T11:49:39.136Z,1425
2016-02-19T11:49:52.089Z,1520
2016-02-19T11:50:05.638Z,1520
2016-02-19T11:50:19.247Z,1500
2016-02-19T11:50:32.778Z,1520
2016-02-19T11:50:45.606Z,1485
2016-02-19T11:50:59.108Z,1270
2016-02-19T11:51:12.640Z,1130
2016-02-19T11:51:29.249Z,1060
2016-02-19T11:51:42.796Z,1020
2016-02-19T11:51:56.655Z,1015
2016-02-19T11:52:10.502Z,1000
2016-02-19T11:52:24.111Z,985
2016-02-19T11:52:37.814Z,950
2016-02-19T11:52:51.455Z,920
2016-02-19T11:53:05.364Z,900
2016-02-19T11:53:19.302Z,890
2016-02-19T11:53:32.880Z,865
2016-02-19T11:53:47.146Z,845
2016-02-19T11:54:00.867Z,820
2016-02-19T11:54:14.617Z,795
2016-02-19T11:54:28.258Z,775
2016-02-19T11:54:41.945Z,745
2016-02-19T11:54:55.586Z,725
2016-02-19T11:55:09.183Z,715
2016-02-19T11:55:22.792Z,700
2016-02-19T11:55:36.964Z,690
2016-02-19T11:55:53.511Z,680
2016-02-19T11:56:07.263Z,680
2016-02-19T11:56:20.966Z,680
2016-02-19T11:56:34.622Z,675
2016-02-19T11:56:48.357Z,675
2016-02-19T11:57:02.078Z,680
2016-02-19T11:57:15.844Z,680
2016-02-19T11:57:29.547Z,690
2016-02-19T11:57:43.188Z,700
2016-02-19T11:57:56.891Z,710
2016-02-19T11:58:10.738Z,710
2016-02-19T11:58:24.300Z,715
2016-02-19T11:58:38.128Z,715
2016-02-19T11:58:51.800Z,715
2016-02-19T11:59:05.396Z,715
2016-02-19T11:59:22.927Z,705
2016-02-19T11:59:36.943Z,705
2016-02-19T11:59:50.974Z,705
2016-02-19T12:00:04.540Z,715
2016-02-19T12:00:32.368Z,735
2016-02-19T12:00:45.930Z,750
2016-02-19T12:00:59.480Z,760
2016-02-19T12:01:13.746Z,765
2016-02-19T12:01:27.386Z,780
2016-02-19T12:01:41.089Z,785
2016-02-19T12:02:00.982Z,790
2016-02-19T12:02:14.638Z,800
2016-02-19T12:02:28.263Z,800
2016-02-19T12:02:41.841Z,805
2016-02-19T12:02:55.545Z,810
2016-02-19T12:03:09.377Z,805
2016-02-19T12:03:23.299Z,815
2016-02-19T12:03:36.955Z,820
2016-02-19T12:03:51.002Z,835
2016-02-19T12:04:04.504Z,855
2016-02-19T12:04:18.144Z,870
2016-02-19T12:04:31.722Z,885
2016-02-19T12:04:45.457Z,910
2016-02-19T12:04:59.163Z,935
2016-02-19T12:05:12.554Z,960
2016-02-19T12:05:26.022Z,980
2016-02-19T12:05:39.475Z,1005
2016-02-19T12:05:53.022Z,1025
2016-02-19T12:06:06.588Z,1035
2016-02-19T12:06:20.135Z,1045
2016-02-19T12:06:33.963Z,1045
2016-02-19T12:06:47.822Z,1050
2016-02-19T12:07:01.324Z,1060
2016-02-19T12:07:14.949Z,1055
2016-02-19T12:07:28.074Z,1050
2016-02-19T12:07:41.840Z,1045
2016-02-19T12:07:55.324Z,1030
2016-02-19T12:08:08.843Z,1005
2016-02-19T12:08:22.358Z,995
2016-02-19T12:08:35.218Z,975
2016-02-19T12:08:49.077Z,960
2016-02-19T12:09:01.735Z,935
2016-02-19T12:09:15.298Z,920
2016-02-19T12:09:28.829Z,905
2016-02-19T12:09:42.314Z,895
2016-02-19T12:09:55.845Z,895
2016-02-19T12:10:09.504Z,890
2016-02-19T12:10:22.192Z,890
2016-02-19T12:10:36.051Z,905
2016-02-19T12:10:52.598Z,925
2016-02-19T12:11:06.131Z,960
2016-02-19T12:11:19.694Z,975
2016-02-19T12:11:33.272Z,990
2016-02-19T12:11:46.912Z,1015
2016-02-19T12:12:00.448Z,1035
2016-02-19T12:12:13.994Z,1060
2016-02-19T12:12:27.510Z,1080
2016-02-19T12:12:41.323Z,1100
2016-02-19T12:12:54.807Z,1115
2016-02-19T12:13:08.575Z,1135
2016-02-19T12:13:22.028Z,1150
2016-02-19T12:13:35.528Z,1150
2016-02-19T12:13:48.996Z,1155
2016-02-19T12:14:02.514Z,1140
2016-02-19T12:14:19.170Z,1145
2016-02-19T12:14:32.967Z,1130
2016-02-19T12:14:46.514Z,1125
2016-02-19T12:15:00.315Z,1120
2016-02-19T12:15:13.127Z,1115
2016-02-19T12:15:26.784Z,1105
2016-02-19T12:15:40.284Z,1090
2016-02-19T12:15:54.174Z,1080
2016-02-19T12:16:07.739Z,1075
2016-02-19T12:16:21.317Z,1070
2016-02-19T12:16:35.004Z,1060
2016-02-19T12:16:48.645Z,1070
2016-02-19T12:17:02.397Z,1065
2016-02-19T12:17:16.256Z,1070
2016-02-19T12:17:29.944Z,1065
2016-02-19T12:17:42.397Z,1065
2016-02-19T12:17:55.991Z,1070
2016-02-19T12:18:10.010Z,1070
2016-02-19T12:18:25.245Z,1060
2016-02-19T12:18:38.964Z,1055
2016-02-19T12:18:55.526Z,1060
2016-02-19T12:19:09.169Z,1055
2016-02-19T12:19:22.153Z,1055
2016-02-19T12:19:35.872Z,1050
2016-02-19T12:19:48.653Z,1050
2016-02-19T12:20:02.734Z,1065
2016-02-19T12:20:19.469Z,1075
2016-02-19T12:20:33.453Z,1075
2016-02-19T12:20:47.125Z,1085
2016-02-19T12:21:14.800Z,1090
2016-02-19T12:21:28.425Z,1110
2016-02-19T12:21:41.565Z,1120
2016-02-19T12:21:55.190Z,1140
2016-02-19T12:22:08.395Z,1155
2016-02-19T12:22:22.099Z,1190
2016-02-19T12:22:35.630Z,1210
2016-02-19T12:22:49.208Z,1250
2016-02-19T12:23:02.898Z,1275
2016-02-19T12:23:15.648Z,1305
2016-02-19T12:23:29.273Z,1330
2016-02-19T12:23:45.930Z,1365
2016-02-19T12:23:59.494Z,1410
2016-02-19T12:24:13.072Z,1445
2016-02-19T12:24:40.807Z,1425
2016-02-19T12:24:54.322Z,1410
2016-02-19T12:25:07.950Z,1380
2016-02-19T12:25:21.935Z,1355
2016-02-19T12:25:35.435Z,1340
2016-02-19T12:25:48.966Z,1340
2016-02-19T12:26:02.562Z,1340
2016-02-19T12:26:16.093Z,1345
2016-02-19T12:26:29.593Z,1350
2016-02-19T12:26:43.030Z,1370
2016-02-19T12:26:56.577Z,1370
2016-02-19T12:27:10.096Z,1400
2016-02-19T12:27:23.815Z,1410
2016-02-19T12:27:37.377Z,1425
2016-02-19T12:27:51.268Z,1435
2016-02-19T12:28:04.802Z,1445
2016-02-19T12:28:18.740Z,1450
2016-02-19T12:28:32.255Z,1430
2016-02-19T12:28:45.802Z,1430
2016-02-19T12:28:59.305Z,1420
2016-02-19T12:29:12.633Z,1415
2016-02-19T12:29:27.008Z,1415
2016-02-19T12:29:40.852Z,1415
2016-02-19T12:29:54.383Z,1420
2016-02-19T12:30:07.167Z,1425
2016-02-19T12:30:20.636Z,1430
2016-02-19T12:30:34.214Z,1435
2016-02-19T12:30:48.042Z,1440
2016-02-19T12:31:04.763Z,1445
2016-02-19T12:31:18.576Z,1440
2016-02-19T12:31:32.294Z,1445
2016-02-19T12:31:45.794Z,1435
2016-02-19T12:31:58.623Z,1425
2016-02-19T12:32:12.141Z,1425
2016-02-19T12:32:25.719Z,1420
2016-02-19T12:32:39.922Z,1415
2016-02-19T12:32:53.501Z,1415
2016-02-19T12:33:07.004Z,1410
2016-02-19T12:33:20.629Z,1390
2016-02-19T12:33:34.207Z,1355
2016-02-19T12:33:47.910Z,1320
2016-02-19T12:34:00.693Z,1305
2016-02-19T12:34:14.256Z,1280
2016-02-19T12:34:27.959Z,1265
2016-02-19T12:34:41.896Z,1235
2016-02-19T12:34:56.599Z,1230
2016-02-19T12:35:10.196Z,1220
2016-02-19T12:35:24.384Z,1220
2016-02-19T12:35:37.899Z,1210
2016-02-19T12:35:51.618Z,1210
2016-02-19T12:36:05.183Z,1215
2016-02-19T12:36:18.918Z,1220
2016-02-19T12:36:32.465Z,1230
2016-02-19T12:36:46.277Z,1230
2016-02-19T12:36:59.843Z,1235
2016-02-19T12:37:13.968Z,1225
2016-02-19T12:37:26.811Z,1210
2016-02-19T12:37:40.421Z,1190
2016-02-19T12:37:54.390Z,1180
2016-02-19T12:38:08.001Z,1175
2016-02-19T12:38:24.501Z,1180
2016-02-19T12:38:38.142Z,1185
2016-02-19T12:38:51.720Z,1175
2016-02-19T12:39:05.285Z,1175
2016-02-19T12:39:19.004Z,1165
2016-02-19T12:39:32.566Z,1160
2016-02-19T12:39:46.098Z,1165
2016-02-19T12:39:58.973Z,1170
2016-02-19T12:40:12.616Z,1185
2016-02-19T12:40:25.460Z,1200
2016-02-19T12:40:39.163Z,1205
2016-02-19T12:40:52.866Z,1200
2016-02-19T12:41:07.009Z,1235
2016-02-19T12:41:20.915Z,1225
2016-02-19T12:41:34.821Z,1225
2016-02-19T12:42:02.495Z,1235
2016-02-19T12:42:16.292Z,1250
2016-02-19T12:42:29.823Z,1270
2016-02-19T12:42:42.605Z,1345
2016-02-19T12:42:56.495Z,1380
2016-02-19T12:43:10.046Z,1415
2016-02-19T12:43:23.609Z,1460
2016-02-19T12:43:37.156Z,1500
2016-02-19T12:43:50.734Z,1540
2016-02-19T12:44:04.533Z,1570
2016-02-19T12:44:18.189Z,1590
2016-02-19T12:44:31.673Z,1590
2016-02-19T12:44:45.220Z,1570
2016-02-19T12:44:58.783Z,1555
2016-02-19T12:45:12.536Z,1535
2016-02-19T12:45:26.098Z,1520
2016-02-19T12:45:39.942Z,1495
2016-02-19T12:45:53.395Z,1460
2016-02-19T12:46:06.898Z,1430
2016-02-19T12:46:20.429Z,1390
2016-02-19T12:46:33.960Z,1370
2016-02-19T12:46:47.382Z,1340
2016-02-19T12:47:00.947Z,1320
2016-02-19T12:47:17.494Z,1310
2016-02-19T12:47:30.994Z,1280